Portada
METAR-TAF:

METAR-TAF

Aeropuertos :

Chugiak, Alaska, Estados Unidos

latitud: 61-25N, longitud: 149-31W, altitud: 29 m

Observación

El informe se hizo hace 10 minutos, a las 03:56 UTC
Viento 9 kt del oeste
Temperatura 19°C
Humedad 64%
Presión 1026 hPa
Visibilidad: 14.5 km
Cielo despejado

METAR: PABV 250356Z AUTO 26009KT 9SM CLR 19/12 A3031 RMK AO2 SLP268 T01890122

Hora: 20:06 (04:06 UTC)


TAF: falta

Observaciones y pronósticos meteorológicos de más de 4000 aeropuertos (mensajes METAR y TAF).

Los puntos amarillos y rojos representan las estaciones disponibles.

Ponga el ratón en el punto deseado para ver el nombre de la estación.

Haga clic para ver las observaciones y los pronósticos meteorológicos.

Para cambiar el mapa : haga clic en los botones verdes con una cruz de color negro para hacer un zoom, en el botón verde con un guión para alejar o en las flechas verdes para mapas adyacentes.


METAR-TAF: